Suzano, Brazil
Current Conditions -  °F | °C
As of 9:00 AM on Saturday 25 Oct 2014 (Local Time) from SBGR Reporting Station
Haze Haze  
Wind Chill: 66°   Ceiling: 1100
Heat Index: 66°   Visibility: 3mi
Dew Point: 63°   Wind: 2mph
Humidity: 88%   Direction: 230°SW
Pressure: 30.06"   Gusts: NA
Location:  23.55°S, 46.31°W
Report Text: SBGR 251100Z 23002KT 5000 BR BKN011 19/17 Q1018
Loading
Personal Weather Stations






























Interactive Weather Map
Tropical Storm Tracking
New forecast layout! Learn more

10-Day Weather Forecast

Advertisements
Track Severe Weather on mobile